sensor_id;sensor_type;location;lat;lon;timestamp;P1;durP1;ratioP1;P2;durP2;ratioP2
3627;SDS011;1830;49.000;12.074;2022-07-29T00:00:05;12.48;;;4.32;;
3627;SDS011;1830;49.000;12.074;2022-07-29T00:02:33;7.45;;;3.72;;
3627;SDS011;1830;49.000;12.074;2022-07-29T00:05:00;6.37;;;4.00;;
3627;SDS011;1830;49.000;12.074;2022-07-29T00:07:28;5.93;;;3.50;;
3627;SDS011;1830;49.000;12.074;2022-07-29T00:09:55;6.63;;;4.67;;
3627;SDS011;1830;49.000;12.074;2022-07-29T00:12:23;6.20;;;3.53;;
3627;SDS011;1830;49.000;12.074;2022-07-29T00:14:51;10.90;;;4.40;;
3627;SDS011;1830;49.000;12.074;2022-07-29T00:17:18;8.40;;;3.70;;
3627;SDS011;1830;49.000;12.074;2022-07-29T00:19:45;6.90;;;3.57;;
3627;SDS011;1830;49.000;12.074;2022-07-29T00:22:11;8.43;;;4.13;;
3627;SDS011;1830;49.000;12.074;2022-07-29T00:24:40;10.93;;;4.30;;
3627;SDS011;1830;49.000;12.074;2022-07-29T00:27:07;6.60;;;4.53;;
3627;SDS011;1830;49.000;12.074;2022-07-29T00:29:33;16.53;;;4.50;;
3627;SDS011;1830;49.000;12.074;2022-07-29T00:32:00;5.27;;;3.93;;
3627;SDS011;1830;49.000;12.074;2022-07-29T00:34:27;6.90;;;4.57;;
3627;SDS011;1830;49.000;12.074;2022-07-29T00:37:12;7.23;;;4.43;;
3627;SDS011;1830;49.000;12.074;2022-07-29T00:39:40;7.50;;;4.50;;
3627;SDS011;1830;49.000;12.074;2022-07-29T00:42:07;8.03;;;4.07;;
3627;SDS011;1830;49.000;12.074;2022-07-29T00:44:36;5.07;;;3.70;;
3627;SDS011;1830;49.000;12.074;2022-07-29T00:47:03;7.97;;;3.87;;
3627;SDS011;1830;49.000;12.074;2022-07-29T00:49:30;8.70;;;4.40;;
3627;SDS011;1830;49.000;12.074;2022-07-29T00:51:57;9.53;;;4.17;;
3627;SDS011;1830;49.000;12.074;2022-07-29T00:54:23;6.93;;;4.23;;
3627;SDS011;1830;49.000;12.074;2022-07-29T00:56:53;8.37;;;4.20;;
3627;SDS011;1830;49.000;12.074;2022-07-29T00:59:19;11.80;;;4.93;;
3627;SDS011;1830;49.000;12.074;2022-07-29T01:01:46;11.20;;;4.60;;
3627;SDS011;1830;49.000;12.074;2022-07-29T01:04:13;13.53;;;4.50;;
3627;SDS011;1830;49.000;12.074;2022-07-29T01:06:40;8.73;;;4.50;;
3627;SDS011;1830;49.000;12.074;2022-07-29T01:09:07;7.93;;;3.67;;
3627;SDS011;1830;49.000;12.074;2022-07-29T01:11:36;12.20;;;4.17;;
3627;SDS011;1830;49.000;12.074;2022-07-29T01:14:04;8.90;;;4.00;;
3627;SDS011;1830;49.000;12.074;2022-07-29T01:16:36;5.83;;;4.17;;
3627;SDS011;1830;49.000;12.074;2022-07-29T01:19:13;10.83;;;3.73;;
3627;SDS011;1830;49.000;12.074;2022-07-29T01:21:51;6.93;;;3.90;;
3627;SDS011;1830;49.000;12.074;2022-07-29T01:24:33;7.83;;;3.80;;
3627;SDS011;1830;49.000;12.074;2022-07-29T01:27:15;9.50;;;4.33;;
3627;SDS011;1830;49.000;12.074;2022-07-29T01:29:53;4.83;;;3.57;;
3627;SDS011;1830;49.000;12.074;2022-07-29T01:32:24;8.50;;;4.17;;
3627;SDS011;1830;49.000;12.074;2022-07-29T01:34:54;10.40;;;4.70;;
3627;SDS011;1830;49.000;12.074;2022-07-29T01:37:28;11.30;;;4.10;;
3627;SDS011;1830;49.000;12.074;2022-07-29T01:39:59;6.97;;;3.57;;
3627;SDS011;1830;49.000;12.074;2022-07-29T01:42:27;10.50;;;4.00;;
3627;SDS011;1830;49.000;12.074;2022-07-29T01:45:02;9.33;;;3.80;;
3627;SDS011;1830;49.000;12.074;2022-07-29T01:47:37;6.90;;;4.20;;
3627;SDS011;1830;49.000;12.074;2022-07-29T01:50:10;8.53;;;4.77;;
3627;SDS011;1830;49.000;12.074;2022-07-29T01:52:42;6.50;;;4.27;;
3627;SDS011;1830;49.000;12.074;2022-07-29T01:55:14;11.93;;;4.23;;
3627;SDS011;1830;49.000;12.074;2022-07-29T01:57:44;6.90;;;4.53;;
3627;SDS011;1830;49.000;12.074;2022-07-29T02:00:15;8.80;;;3.80;;
3627;SDS011;1830;49.000;12.074;2022-07-29T02:02:44;11.60;;;3.93;;
3627;SDS011;1830;49.000;12.074;2022-07-29T02:05:13;18.17;;;3.93;;
3627;SDS011;1830;49.000;12.074;2022-07-29T02:07:43;5.87;;;4.27;;
3627;SDS011;1830;49.000;12.074;2022-07-29T02:10:12;18.47;;;4.70;;
3627;SDS011;1830;49.000;12.074;2022-07-29T02:12:40;7.23;;;4.30;;
3627;SDS011;1830;49.000;12.074;2022-07-29T02:15:09;5.30;;;3.80;;
3627;SDS011;1830;49.000;12.074;2022-07-29T02:17:41;8.33;;;5.07;;
3627;SDS011;1830;49.000;12.074;2022-07-29T02:20:10;13.73;;;4.77;;
3627;SDS011;1830;49.000;12.074;2022-07-29T02:22:38;7.37;;;4.50;;
3627;SDS011;1830;49.000;12.074;2022-07-29T02:25:06;6.03;;;3.93;;
3627;SDS011;1830;49.000;12.074;2022-07-29T02:27:34;7.50;;;5.00;;
3627;SDS011;1830;49.000;12.074;2022-07-29T02:30:03;7.80;;;4.30;;
3627;SDS011;1830;49.000;12.074;2022-07-29T02:32:32;14.93;;;4.80;;
3627;SDS011;1830;49.000;12.074;2022-07-29T02:35:03;6.90;;;4.87;;
3627;SDS011;1830;49.000;12.074;2022-07-29T02:37:30;6.40;;;4.50;;
3627;SDS011;1830;49.000;12.074;2022-07-29T02:39:58;8.10;;;4.83;;
3627;SDS011;1830;49.000;12.074;2022-07-29T02:42:26;8.43;;;4.57;;
3627;SDS011;1830;49.000;12.074;2022-07-29T02:44:54;6.93;;;4.73;;
3627;SDS011;1830;49.000;12.074;2022-07-29T02:47:22;11.30;;;4.53;;
3627;SDS011;1830;49.000;12.074;2022-07-29T02:49:54;7.50;;;4.17;;
3627;SDS011;1830;49.000;12.074;2022-07-29T02:52:26;12.23;;;4.30;;
3627;SDS011;1830;49.000;12.074;2022-07-29T02:54:58;6.50;;;4.10;;
3627;SDS011;1830;49.000;12.074;2022-07-29T02:57:29;7.10;;;4.33;;
3627;SDS011;1830;49.000;12.074;2022-07-29T03:00:01;9.60;;;4.57;;
3627;SDS011;1830;49.000;12.074;2022-07-29T03:02:31;9.77;;;4.10;;
3627;SDS011;1830;49.000;12.074;2022-07-29T03:05:01;5.00;;;4.10;;
3627;SDS011;1830;49.000;12.074;2022-07-29T03:07:31;6.77;;;4.17;;
3627;SDS011;1830;49.000;12.074;2022-07-29T03:10:00;8.97;;;4.20;;
3627;SDS011;1830;49.000;12.074;2022-07-29T03:12:28;8.23;;;4.40;;
3627;SDS011;1830;49.000;12.074;2022-07-29T03:14:56;5.67;;;3.83;;
3627;SDS011;1830;49.000;12.074;2022-07-29T03:17:24;9.13;;;4.27;;
3627;SDS011;1830;49.000;12.074;2022-07-29T03:19:52;6.30;;;4.03;;
3627;SDS011;1830;49.000;12.074;2022-07-29T03:22:19;5.00;;;4.00;;
3627;SDS011;1830;49.000;12.074;2022-07-29T03:24:47;6.60;;;4.03;;
3627;SDS011;1830;49.000;12.074;2022-07-29T03:27:14;11.30;;;4.30;;
3627;SDS011;1830;49.000;12.074;2022-07-29T03:29:41;7.80;;;4.27;;
3627;SDS011;1830;49.000;12.074;2022-07-29T03:32:08;7.17;;;4.13;;
3627;SDS011;1830;49.000;12.074;2022-07-29T03:34:35;8.13;;;3.93;;
3627;SDS011;1830;49.000;12.074;2022-07-29T03:37:03;10.90;;;5.00;;
3627;SDS011;1830;49.000;12.074;2022-07-29T03:39:33;6.63;;;4.10;;
3627;SDS011;1830;49.000;12.074;2022-07-29T03:42:05;5.80;;;4.23;;
3627;SDS011;1830;49.000;12.074;2022-07-29T03:44:34;5.30;;;4.30;;
3627;SDS011;1830;49.000;12.074;2022-07-29T03:47:03;9.83;;;4.07;;
3627;SDS011;1830;49.000;12.074;2022-07-29T03:49:32;9.20;;;4.47;;
3627;SDS011;1830;49.000;12.074;2022-07-29T03:52:02;8.50;;;4.13;;
3627;SDS011;1830;49.000;12.074;2022-07-29T03:54:30;6.50;;;4.30;;
3627;SDS011;1830;49.000;12.074;2022-07-29T03:56:57;5.60;;;4.40;;
3627;SDS011;1830;49.000;12.074;2022-07-29T03:59:28;11.83;;;4.40;;
3627;SDS011;1830;49.000;12.074;2022-07-29T04:01:58;9.80;;;4.60;;
3627;SDS011;1830;49.000;12.074;2022-07-29T04:04:26;8.73;;;4.50;;
3627;SDS011;1830;49.000;12.074;2022-07-29T04:06:53;11.27;;;4.90;;
3627;SDS011;1830;49.000;12.074;2022-07-29T04:09:20;6.87;;;4.83;;
3627;SDS011;1830;49.000;12.074;2022-07-29T04:11:47;7.07;;;4.83;;
3627;SDS011;1830;49.000;12.074;2022-07-29T04:14:14;9.23;;;4.50;;
3627;SDS011;1830;49.000;12.074;2022-07-29T04:16:42;9.30;;;5.17;;
3627;SDS011;1830;49.000;12.074;2022-07-29T04:19:09;7.97;;;4.57;;
3627;SDS011;1830;49.000;12.074;2022-07-29T04:21:36;9.33;;;4.27;;
3627;SDS011;1830;49.000;12.074;2022-07-29T04:24:04;12.30;;;4.80;;
3627;SDS011;1830;49.000;12.074;2022-07-29T04:26:31;6.50;;;4.40;;
3627;SDS011;1830;49.000;12.074;2022-07-29T04:28:58;15.30;;;4.90;;
3627;SDS011;1830;49.000;12.074;2022-07-29T04:31:25;12.93;;;4.80;;
3627;SDS011;1830;49.000;12.074;2022-07-29T04:33:53;8.17;;;4.60;;
3627;SDS011;1830;49.000;12.074;2022-07-29T04:36:20;8.20;;;4.93;;
3627;SDS011;1830;49.000;12.074;2022-07-29T04:38:47;8.00;;;4.33;;
3627;SDS011;1830;49.000;12.074;2022-07-29T04:41:14;9.47;;;4.90;;
3627;SDS011;1830;49.000;12.074;2022-07-29T04:43:40;9.57;;;5.00;;
3627;SDS011;1830;49.000;12.074;2022-07-29T04:46:08;11.00;;;5.50;;
3627;SDS011;1830;49.000;12.074;2022-07-29T04:48:35;8.70;;;4.53;;
3627;SDS011;1830;49.000;12.074;2022-07-29T04:51:03;12.80;;;4.80;;
3627;SDS011;1830;49.000;12.074;2022-07-29T04:53:30;9.53;;;5.03;;
3627;SDS011;1830;49.000;12.074;2022-07-29T04:55:56;6.00;;;4.37;;
3627;SDS011;1830;49.000;12.074;2022-07-29T04:58:23;14.73;;;4.80;;
3627;SDS011;1830;49.000;12.074;2022-07-29T05:00:51;8.50;;;4.40;;
3627;SDS011;1830;49.000;12.074;2022-07-29T05:03:18;15.23;;;5.03;;
3627;SDS011;1830;49.000;12.074;2022-07-29T05:05:44;20.47;;;4.60;;
3627;SDS011;1830;49.000;12.074;2022-07-29T05:08:12;10.93;;;4.80;;
3627;SDS011;1830;49.000;12.074;2022-07-29T05:10:39;6.83;;;4.27;;
3627;SDS011;1830;49.000;12.074;2022-07-29T05:13:06;7.40;;;4.40;;
3627;SDS011;1830;49.000;12.074;2022-07-29T05:15:33;25.57;;;4.73;;
3627;SDS011;1830;49.000;12.074;2022-07-29T05:18:01;13.20;;;5.00;;
3627;SDS011;1830;49.000;12.074;2022-07-29T05:20:28;10.30;;;4.87;;
3627;SDS011;1830;49.000;12.074;2022-07-29T05:22:56;11.20;;;5.20;;
3627;SDS011;1830;49.000;12.074;2022-07-29T05:25:25;17.17;;;5.70;;
3627;SDS011;1830;49.000;12.074;2022-07-29T05:27:55;14.30;;;5.07;;
3627;SDS011;1830;49.000;12.074;2022-07-29T05:30:22;15.53;;;5.07;;
3627;SDS011;1830;49.000;12.074;2022-07-29T05:32:49;8.57;;;4.70;;
3627;SDS011;1830;49.000;12.074;2022-07-29T05:35:16;21.67;;;4.80;;
3627;SDS011;1830;49.000;12.074;2022-07-29T05:37:43;9.17;;;5.07;;
3627;SDS011;1830;49.000;12.074;2022-07-29T05:40:10;9.43;;;4.40;;
3627;SDS011;1830;49.000;12.074;2022-07-29T05:42:38;9.27;;;4.47;;
3627;SDS011;1830;49.000;12.074;2022-07-29T05:45:05;11.23;;;4.67;;
3627;SDS011;1830;49.000;12.074;2022-07-29T05:47:32;10.10;;;4.70;;
3627;SDS011;1830;49.000;12.074;2022-07-29T05:50:00;15.73;;;4.53;;
3627;SDS011;1830;49.000;12.074;2022-07-29T05:52:27;14.53;;;5.30;;
3627;SDS011;1830;49.000;12.074;2022-07-29T05:54:54;9.27;;;4.53;;
3627;SDS011;1830;49.000;12.074;2022-07-29T05:57:21;18.73;;;5.60;;
3627;SDS011;1830;49.000;12.074;2022-07-29T05:59:53;13.23;;;5.23;;
3627;SDS011;1830;49.000;12.074;2022-07-29T06:02:19;14.63;;;5.50;;
3627;SDS011;1830;49.000;12.074;2022-07-29T06:04:48;17.13;;;4.90;;
3627;SDS011;1830;49.000;12.074;2022-07-29T06:07:15;25.57;;;5.07;;
3627;SDS011;1830;49.000;12.074;2022-07-29T06:09:42;28.93;;;6.13;;
3627;SDS011;1830;49.000;12.074;2022-07-29T06:12:09;12.10;;;4.40;;
3627;SDS011;1830;49.000;12.074;2022-07-29T06:14:36;28.97;;;5.30;;
3627;SDS011;1830;49.000;12.074;2022-07-29T06:17:04;25.80;;;5.50;;
3627;SDS011;1830;49.000;12.074;2022-07-29T06:19:33;14.57;;;4.97;;
3627;SDS011;1830;49.000;12.074;2022-07-29T06:22:01;11.63;;;4.80;;
3627;SDS011;1830;49.000;12.074;2022-07-29T06:24:28;19.90;;;4.97;;
3627;SDS011;1830;49.000;12.074;2022-07-29T06:26:55;18.43;;;5.83;;
3627;SDS011;1830;49.000;12.074;2022-07-29T06:29:22;10.93;;;4.83;;
3627;SDS011;1830;49.000;12.074;2022-07-29T06:31:49;29.00;;;5.20;;
3627;SDS011;1830;49.000;12.074;2022-07-29T06:34:17;13.27;;;4.53;;
3627;SDS011;1830;49.000;12.074;2022-07-29T06:36:44;15.03;;;4.80;;
3627;SDS011;1830;49.000;12.074;2022-07-29T06:39:11;17.13;;;5.10;;
3627;SDS011;1830;49.000;12.074;2022-07-29T06:41:38;9.77;;;5.07;;
3627;SDS011;1830;49.000;12.074;2022-07-29T06:44:06;10.13;;;4.00;;
3627;SDS011;1830;49.000;12.074;2022-07-29T06:46:33;13.33;;;5.27;;
3627;SDS011;1830;49.000;12.074;2022-07-29T06:49:01;16.50;;;5.73;;
3627;SDS011;1830;49.000;12.074;2022-07-29T06:51:29;7.57;;;5.17;;
3627;SDS011;1830;49.000;12.074;2022-07-29T06:53:56;11.07;;;4.93;;
3627;SDS011;1830;49.000;12.074;2022-07-29T06:56:23;44.20;;;5.93;;
3627;SDS011;1830;49.000;12.074;2022-07-29T06:58:51;12.67;;;4.53;;
3627;SDS011;1830;49.000;12.074;2022-07-29T07:01:17;10.57;;;5.03;;
3627;SDS011;1830;49.000;12.074;2022-07-29T07:03:44;9.70;;;5.03;;
3627;SDS011;1830;49.000;12.074;2022-07-29T07:06:11;15.40;;;4.70;;
3627;SDS011;1830;49.000;12.074;2022-07-29T07:08:39;14.57;;;4.60;;
3627;SDS011;1830;49.000;12.074;2022-07-29T07:11:06;13.83;;;5.83;;
3627;SDS011;1830;49.000;12.074;2022-07-29T07:13:33;15.70;;;5.43;;
3627;SDS011;1830;49.000;12.074;2022-07-29T07:16:00;7.87;;;4.50;;
3627;SDS011;1830;49.000;12.074;2022-07-29T07:18:27;24.23;;;5.40;;
3627;SDS011;1830;49.000;12.074;2022-07-29T07:20:54;13.47;;;5.50;;
3627;SDS011;1830;49.000;12.074;2022-07-29T07:23:20;22.67;;;4.80;;
3627;SDS011;1830;49.000;12.074;2022-07-29T07:25:48;11.47;;;4.60;;
3627;SDS011;1830;49.000;12.074;2022-07-29T07:28:16;9.43;;;5.40;;
3627;SDS011;1830;49.000;12.074;2022-07-29T07:30:44;11.80;;;5.63;;
3627;SDS011;1830;49.000;12.074;2022-07-29T07:33:11;8.73;;;4.80;;
3627;SDS011;1830;49.000;12.074;2022-07-29T07:35:39;29.97;;;7.53;;
3627;SDS011;1830;49.000;12.074;2022-07-29T07:38:06;22.13;;;6.30;;
3627;SDS011;1830;49.000;12.074;2022-07-29T07:40:32;23.03;;;6.20;;
3627;SDS011;1830;49.000;12.074;2022-07-29T07:43:00;8.83;;;5.63;;
3627;SDS011;1830;49.000;12.074;2022-07-29T07:45:27;8.07;;;6.07;;
3627;SDS011;1830;49.000;12.074;2022-07-29T07:47:54;10.10;;;5.40;;
3627;SDS011;1830;49.000;12.074;2022-07-29T07:50:21;14.40;;;6.30;;
3627;SDS011;1830;49.000;12.074;2022-07-29T07:52:48;23.80;;;5.97;;
3627;SDS011;1830;49.000;12.074;2022-07-29T07:55:17;21.13;;;4.97;;
3627;SDS011;1830;49.000;12.074;2022-07-29T07:57:44;17.00;;;5.73;;
3627;SDS011;1830;49.000;12.074;2022-07-29T08:00:12;10.43;;;6.13;;
3627;SDS011;1830;49.000;12.074;2022-07-29T08:02:40;6.70;;;4.60;;
3627;SDS011;1830;49.000;12.074;2022-07-29T08:05:07;15.63;;;5.90;;
3627;SDS011;1830;49.000;12.074;2022-07-29T08:07:35;13.53;;;5.33;;
3627;SDS011;1830;49.000;12.074;2022-07-29T08:10:02;14.27;;;5.03;;
3627;SDS011;1830;49.000;12.074;2022-07-29T08:12:30;10.30;;;5.07;;
3627;SDS011;1830;49.000;12.074;2022-07-29T08:14:57;9.43;;;5.20;;
3627;SDS011;1830;49.000;12.074;2022-07-29T08:17:25;8.67;;;5.47;;
3627;SDS011;1830;49.000;12.074;2022-07-29T08:19:52;9.43;;;5.60;;
3627;SDS011;1830;49.000;12.074;2022-07-29T08:22:19;9.37;;;5.57;;
3627;SDS011;1830;49.000;12.074;2022-07-29T08:24:46;16.93;;;5.93;;
3627;SDS011;1830;49.000;12.074;2022-07-29T08:27:19;13.63;;;5.60;;
3627;SDS011;1830;49.000;12.074;2022-07-29T08:29:46;9.40;;;5.77;;
3627;SDS011;1830;49.000;12.074;2022-07-29T08:32:13;14.10;;;5.70;;
3627;SDS011;1830;49.000;12.074;2022-07-29T08:34:41;14.90;;;5.67;;
3627;SDS011;1830;49.000;12.074;2022-07-29T08:37:11;10.07;;;5.30;;
3627;SDS011;1830;49.000;12.074;2022-07-29T08:39:37;15.43;;;9.10;;
3627;SDS011;1830;49.000;12.074;2022-07-29T08:42:05;16.70;;;6.80;;
3627;SDS011;1830;49.000;12.074;2022-07-29T08:44:32;12.50;;;5.90;;
3627;SDS011;1830;49.000;12.074;2022-07-29T08:46:59;7.77;;;5.87;;
3627;SDS011;1830;49.000;12.074;2022-07-29T08:49:26;9.03;;;6.10;;
3627;SDS011;1830;49.000;12.074;2022-07-29T08:51:54;15.30;;;5.53;;
3627;SDS011;1830;49.000;12.074;2022-07-29T08:54:23;10.20;;;6.90;;
3627;SDS011;1830;49.000;12.074;2022-07-29T08:56:51;11.80;;;6.43;;
3627;SDS011;1830;49.000;12.074;2022-07-29T08:59:18;18.50;;;7.43;;
3627;SDS011;1830;49.000;12.074;2022-07-29T09:01:45;19.77;;;8.07;;
3627;SDS011;1830;49.000;12.074;2022-07-29T09:04:14;11.35;;;6.47;;
3627;SDS011;1830;49.000;12.074;2022-07-29T09:06:43;9.07;;;5.60;;
3627;SDS011;1830;49.000;12.074;2022-07-29T09:09:13;14.63;;;6.60;;
3627;SDS011;1830;49.000;12.074;2022-07-29T09:11:41;10.23;;;6.40;;
3627;SDS011;1830;49.000;12.074;2022-07-29T09:14:09;11.03;;;5.80;;
3627;SDS011;1830;49.000;12.074;2022-07-29T09:16:47;15.13;;;6.40;;
3627;SDS011;1830;49.000;12.074;2022-07-29T09:19:19;7.25;;;6.15;;
3627;SDS011;1830;49.000;12.074;2022-07-29T09:21:47;10.82;;;7.25;;
3627;SDS011;1830;49.000;12.074;2022-07-29T09:24:35;12.55;;;7.10;;
3627;SDS011;1830;49.000;12.074;2022-07-29T09:27:07;10.77;;;7.50;;
3627;SDS011;1830;49.000;12.074;2022-07-29T09:29:35;12.88;;;7.85;;
3627;SDS011;1830;49.000;12.074;2022-07-29T09:32:05;10.18;;;7.82;;
3627;SDS011;1830;49.000;12.074;2022-07-29T09:34:35;11.70;;;7.95;;
3627;SDS011;1830;49.000;12.074;2022-07-29T09:37:02;12.07;;;7.28;;
3627;SDS011;1830;49.000;12.074;2022-07-29T09:39:32;12.85;;;7.05;;
3627;SDS011;1830;49.000;12.074;2022-07-29T09:42:00;17.50;;;7.25;;
3627;SDS011;1830;49.000;12.074;2022-07-29T09:44:40;13.63;;;6.40;;
3627;SDS011;1830;49.000;12.074;2022-07-29T09:47:08;14.35;;;6.70;;
3627;SDS011;1830;49.000;12.074;2022-07-29T09:49:35;7.05;;;5.78;;
3627;SDS011;1830;49.000;12.074;2022-07-29T09:52:16;10.88;;;5.80;;
3627;SDS011;1830;49.000;12.074;2022-07-29T09:54:44;16.52;;;5.43;;
3627;SDS011;1830;49.000;12.074;2022-07-29T09:57:21;13.20;;;5.55;;
3627;SDS011;1830;49.000;12.074;2022-07-29T09:59:55;9.57;;;5.38;;
3627;SDS011;1830;49.000;12.074;2022-07-29T10:02:22;8.85;;;5.88;;
3627;SDS011;1830;49.000;12.074;2022-07-29T10:04:54;9.07;;;5.80;;
3627;SDS011;1830;49.000;12.074;2022-07-29T10:07:21;10.20;;;6.53;;
3627;SDS011;1830;49.000;12.074;2022-07-29T10:09:54;8.55;;;5.25;;
3627;SDS011;1830;49.000;12.074;2022-07-29T10:12:22;10.85;;;5.47;;
3627;SDS011;1830;49.000;12.074;2022-07-29T10:14:49;10.27;;;4.85;;
3627;SDS011;1830;49.000;12.074;2022-07-29T10:17:16;13.90;;;4.38;;
3627;SDS011;1830;49.000;12.074;2022-07-29T10:19:45;9.80;;;4.50;;
3627;SDS011;1830;49.000;12.074;2022-07-29T10:22:13;7.78;;;4.68;;
3627;SDS011;1830;49.000;12.074;2022-07-29T10:24:40;9.32;;;4.80;;
3627;SDS011;1830;49.000;12.074;2022-07-29T10:27:08;9.18;;;4.55;;
3627;SDS011;1830;49.000;12.074;2022-07-29T10:29:35;6.10;;;4.47;;
3627;SDS011;1830;49.000;12.074;2022-07-29T10:32:08;10.07;;;4.28;;
3627;SDS011;1830;49.000;12.074;2022-07-29T10:34:49;5.63;;;4.00;;
3627;SDS011;1830;49.000;12.074;2022-07-29T10:37:28;7.00;;;4.32;;
3627;SDS011;1830;49.000;12.074;2022-07-29T10:40:06;6.38;;;4.22;;
3627;SDS011;1830;49.000;12.074;2022-07-29T10:45:47;9.30;;;4.47;;
3627;SDS011;1830;49.000;12.074;2022-07-29T10:48:15;6.95;;;4.38;;
3627;SDS011;1830;49.000;12.074;2022-07-29T10:50:51;6.10;;;4.05;;
3627;SDS011;1830;49.000;12.074;2022-07-29T10:53:18;7.13;;;4.00;;
3627;SDS011;1830;49.000;12.074;2022-07-29T10:55:46;8.40;;;3.97;;
3627;SDS011;1830;49.000;12.074;2022-07-29T10:58:15;7.03;;;4.50;;
3627;SDS011;1830;49.000;12.074;2022-07-29T11:00:45;4.95;;;4.00;;
3627;SDS011;1830;49.000;12.074;2022-07-29T11:06:11;5.47;;;3.42;;
3627;SDS011;1830;49.000;12.074;2022-07-29T11:08:38;3.92;;;3.40;;
3627;SDS011;1830;49.000;12.074;2022-07-29T11:14:05;6.18;;;3.90;;
3627;SDS011;1830;49.000;12.074;2022-07-29T11:19:29;4.78;;;3.30;;
3627;SDS011;1830;49.000;12.074;2022-07-29T11:21:57;3.65;;;2.80;;
3627;SDS011;1830;49.000;12.074;2022-07-29T11:24:25;11.15;;;2.75;;
3627;SDS011;1830;49.000;12.074;2022-07-29T11:27:06;6.18;;;3.17;;
3627;SDS011;1830;49.000;12.074;2022-07-29T11:29:34;4.75;;;3.60;;
3627;SDS011;1830;49.000;12.074;2022-07-29T11:32:12;4.60;;;3.65;;
3627;SDS011;1830;49.000;12.074;2022-07-29T11:34:41;5.03;;;3.00;;
3627;SDS011;1830;49.000;12.074;2022-07-29T11:40:15;4.18;;;2.70;;
3627;SDS011;1830;49.000;12.074;2022-07-29T11:42:47;4.18;;;3.30;;
3627;SDS011;1830;49.000;12.074;2022-07-29T11:45:15;13.32;;;3.22;;
3627;SDS011;1830;49.000;12.074;2022-07-29T11:47:54;5.95;;;3.30;;
3627;SDS011;1830;49.000;12.074;2022-07-29T11:50:28;3.85;;;2.88;;
3627;SDS011;1830;49.000;12.074;2022-07-29T11:52:57;4.45;;;3.13;;
3627;SDS011;1830;49.000;12.074;2022-07-29T11:55:24;4.05;;;3.20;;
3627;SDS011;1830;49.000;12.074;2022-07-29T11:57:52;4.38;;;3.33;;
3627;SDS011;1830;49.000;12.074;2022-07-29T12:00:24;4.13;;;2.80;;
3627;SDS011;1830;49.000;12.074;2022-07-29T12:02:54;5.68;;;3.10;;
3627;SDS011;1830;49.000;12.074;2022-07-29T12:05:30;4.53;;;2.88;;
3627;SDS011;1830;49.000;12.074;2022-07-29T12:08:04;6.88;;;2.70;;
3627;SDS011;1830;49.000;12.074;2022-07-29T12:10:33;7.05;;;3.13;;
3627;SDS011;1830;49.000;12.074;2022-07-29T12:13:00;4.75;;;3.20;;
3627;SDS011;1830;49.000;12.074;2022-07-29T12:15:26;3.35;;;3.05;;
3627;SDS011;1830;49.000;12.074;2022-07-29T12:17:55;4.13;;;2.80;;
3627;SDS011;1830;49.000;12.074;2022-07-29T12:20:24;4.55;;;3.42;;
3627;SDS011;1830;49.000;12.074;2022-07-29T12:22:52;6.53;;;4.70;;
3627;SDS011;1830;49.000;12.074;2022-07-29T12:25:21;5.07;;;3.00;;
3627;SDS011;1830;49.000;12.074;2022-07-29T12:27:57;4.90;;;3.35;;
3627;SDS011;1830;49.000;12.074;2022-07-29T12:30:33;6.50;;;3.22;;
3627;SDS011;1830;49.000;12.074;2022-07-29T12:33:16;5.78;;;2.95;;
3627;SDS011;1830;49.000;12.074;2022-07-29T12:35:46;10.77;;;3.08;;
3627;SDS011;1830;49.000;12.074;2022-07-29T12:38:14;4.75;;;2.80;;
3627;SDS011;1830;49.000;12.074;2022-07-29T12:40:42;3.15;;;2.85;;
3627;SDS011;1830;49.000;12.074;2022-07-29T12:43:11;4.22;;;2.92;;
3627;SDS011;1830;49.000;12.074;2022-07-29T12:45:41;7.72;;;3.00;;
3627;SDS011;1830;49.000;12.074;2022-07-29T12:48:09;9.27;;;3.83;;
3627;SDS011;1830;49.000;12.074;2022-07-29T12:50:53;11.23;;;3.20;;
3627;SDS011;1830;49.000;12.074;2022-07-29T12:53:21;5.10;;;3.15;;
3627;SDS011;1830;49.000;12.074;2022-07-29T12:55:49;9.80;;;3.10;;
3627;SDS011;1830;49.000;12.074;2022-07-29T12:58:33;4.63;;;3.03;;
3627;SDS011;1830;49.000;12.074;2022-07-29T13:01:02;3.17;;;2.88;;
3627;SDS011;1830;49.000;12.074;2022-07-29T13:03:48;5.53;;;3.10;;
3627;SDS011;1830;49.000;12.074;2022-07-29T13:06:30;4.63;;;2.45;;
3627;SDS011;1830;49.000;12.074;2022-07-29T13:09:00;8.02;;;2.58;;
3627;SDS011;1830;49.000;12.074;2022-07-29T13:11:38;3.78;;;2.40;;
3627;SDS011;1830;49.000;12.074;2022-07-29T13:14:08;5.82;;;2.63;;
3627;SDS011;1830;49.000;12.074;2022-07-29T13:16:35;23.08;;;3.15;;
3627;SDS011;1830;49.000;12.074;2022-07-29T13:19:07;6.80;;;2.70;;
3627;SDS011;1830;49.000;12.074;2022-07-29T13:21:37;3.78;;;2.53;;
3627;SDS011;1830;49.000;12.074;2022-07-29T13:24:05;5.28;;;2.50;;
3627;SDS011;1830;49.000;12.074;2022-07-29T13:26:33;5.07;;;2.42;;
3627;SDS011;1830;49.000;12.074;2022-07-29T13:29:00;7.43;;;2.47;;
3627;SDS011;1830;49.000;12.074;2022-07-29T13:31:27;5.47;;;2.67;;
3627;SDS011;1830;49.000;12.074;2022-07-29T13:33:54;4.82;;;2.28;;
3627;SDS011;1830;49.000;12.074;2022-07-29T13:36:21;3.75;;;2.78;;
3627;SDS011;1830;49.000;12.074;2022-07-29T13:38:49;3.30;;;2.60;;
3627;SDS011;1830;49.000;12.074;2022-07-29T13:41:16;6.35;;;2.40;;
3627;SDS011;1830;49.000;12.074;2022-07-29T13:43:43;9.35;;;2.58;;
3627;SDS011;1830;49.000;12.074;2022-07-29T13:46:10;7.70;;;2.28;;
3627;SDS011;1830;49.000;12.074;2022-07-29T13:48:37;7.80;;;2.70;;
3627;SDS011;1830;49.000;12.074;2022-07-29T13:51:04;5.60;;;2.30;;
3627;SDS011;1830;49.000;12.074;2022-07-29T13:53:30;4.55;;;2.28;;
3627;SDS011;1830;49.000;12.074;2022-07-29T13:56:00;2.97;;;2.25;;
3627;SDS011;1830;49.000;12.074;2022-07-29T13:58:26;6.43;;;2.25;;
3627;SDS011;1830;49.000;12.074;2022-07-29T14:00:55;7.55;;;2.22;;
3627;SDS011;1830;49.000;12.074;2022-07-29T14:03:23;4.03;;;2.10;;
3627;SDS011;1830;49.000;12.074;2022-07-29T14:05:50;10.05;;;2.65;;
3627;SDS011;1830;49.000;12.074;2022-07-29T14:08:17;3.17;;;2.25;;
3627;SDS011;1830;49.000;12.074;2022-07-29T14:10:44;3.25;;;2.30;;
3627;SDS011;1830;49.000;12.074;2022-07-29T14:13:12;6.75;;;2.30;;
3627;SDS011;1830;49.000;12.074;2022-07-29T14:15:39;7.60;;;2.00;;
3627;SDS011;1830;49.000;12.074;2022-07-29T14:18:06;10.02;;;2.28;;
3627;SDS011;1830;49.000;12.074;2022-07-29T14:20:33;2.25;;;1.88;;
3627;SDS011;1830;49.000;12.074;2022-07-29T14:22:59;6.03;;;2.47;;
3627;SDS011;1830;49.000;12.074;2022-07-29T14:25:26;4.97;;;2.20;;
3627;SDS011;1830;49.000;12.074;2022-07-29T14:27:53;3.42;;;2.22;;
3627;SDS011;1830;49.000;12.074;2022-07-29T14:30:21;5.70;;;2.30;;
3627;SDS011;1830;49.000;12.074;2022-07-29T14:32:48;4.50;;;2.15;;
3627;SDS011;1830;49.000;12.074;2022-07-29T14:35:14;2.40;;;2.00;;
3627;SDS011;1830;49.000;12.074;2022-07-29T14:37:41;8.15;;;2.60;;
3627;SDS011;1830;49.000;12.074;2022-07-29T14:40:09;6.55;;;2.40;;
3627;SDS011;1830;49.000;12.074;2022-07-29T14:42:36;4.10;;;2.83;;
3627;SDS011;1830;49.000;12.074;2022-07-29T14:45:04;5.13;;;2.25;;
3627;SDS011;1830;49.000;12.074;2022-07-29T14:47:33;4.93;;;2.10;;
3627;SDS011;1830;49.000;12.074;2022-07-29T14:50:00;5.10;;;2.53;;
3627;SDS011;1830;49.000;12.074;2022-07-29T14:52:27;4.47;;;2.30;;
3627;SDS011;1830;49.000;12.074;2022-07-29T14:54:54;10.27;;;2.30;;
3627;SDS011;1830;49.000;12.074;2022-07-29T14:57:20;3.25;;;2.42;;
3627;SDS011;1830;49.000;12.074;2022-07-29T14:59:47;3.53;;;2.40;;
3627;SDS011;1830;49.000;12.074;2022-07-29T15:02:14;10.52;;;2.83;;
3627;SDS011;1830;49.000;12.074;2022-07-29T15:04:42;2.92;;;2.42;;
3627;SDS011;1830;49.000;12.074;2022-07-29T15:07:10;2.45;;;2.08;;
3627;SDS011;1830;49.000;12.074;2022-07-29T15:09:37;3.38;;;2.60;;
3627;SDS011;1830;49.000;12.074;2022-07-29T15:12:04;3.00;;;2.40;;
3627;SDS011;1830;49.000;12.074;2022-07-29T15:14:31;4.35;;;2.72;;
3627;SDS011;1830;49.000;12.074;2022-07-29T15:16:59;7.03;;;2.45;;
3627;SDS011;1830;49.000;12.074;2022-07-29T15:19:25;3.55;;;2.45;;